Time;durP1;ratioP1;P1;durP2;ratioP2;P2;SDS_P1;SDS_P2;PMS_P1;PMS_P2;Temp;Humidity;BMP_temperature;BMP_pressure;BME280_temperature;BME280_humidity;BME280_pressure;Samples;Min_cycle;Max_cycle;Signal;HPM_P1;HPM_P2
2023/08/13 00:01:30;;;;;;;;;3.33;3.00;;;;;;;;5053517;28;51037;-54
2023/08/13 00:03:55;;;;;;;;;3.00;3.00;;;;;;;;5053999;28;51081;-55
2023/08/13 00:06:21;;;;;;;;;7.33;5.67;;;;;;;;5053291;28;51887;-55
2023/08/13 00:08:46;;;;;;;;;3.00;2.67;;;;;;;;5053653;28;50899;-54
2023/08/13 00:11:11;;;;;;;;;3.00;3.00;;;;;;;;5053501;28;50880;-54
2023/08/13 00:13:43;;;;;;;;;3.00;3.00;;;;;;;;5053746;28;50916;-55
2023/08/13 00:16:09;;;;;;;;;4.00;3.33;;;;;;;;5053225;28;52024;-56
2023/08/13 00:18:35;;;;;;;;;4.00;4.00;;;;;;;;5053616;28;50905;-56
2023/08/13 00:21:00;;;;;;;;;5.00;4.67;;;;;;;;5049904;28;51318;-54
2023/08/13 00:23:26;;;;;;;;;4.67;4.00;;;;;;;;5051263;28;51187;-55
2023/08/13 00:25:51;;;;;;;;;3.33;3.00;;;;;;;;5053709;28;51300;-55
2023/08/13 00:28:16;;;;;;;;;3.00;3.00;;;;;;;;5054240;28;51096;-54
2023/08/13 00:30:41;;;;;;;;;4.00;4.00;;;;;;;;5053207;28;51155;-54
2023/08/13 00:33:06;;;;;;;;;3.33;3.33;;;;;;;;5053953;28;51101;-54
2023/08/13 00:35:32;;;;;;;;;4.00;4.00;;;;;;;;5052758;28;51119;-55
2023/08/13 00:37:57;;;;;;;;;3.00;2.33;;;;;;;;5053189;28;50971;-54
2023/08/13 00:40:22;;;;;;;;;6.00;5.00;;;;;;;;5053033;28;51095;-53
2023/08/13 00:42:47;;;;;;;;;4.00;3.33;;;;;;;;5053520;28;51373;-55
2023/08/13 00:45:13;;;;;;;;;4.00;3.67;;;;;;;;5052806;28;51258;-54
2023/08/13 00:47:38;;;;;;;;;4.67;4.67;;;;;;;;5052814;28;51153;-54
2023/08/13 00:50:04;;;;;;;;;5.00;4.00;;;;;;;;3900400;28;33016800;-53
2023/08/13 00:52:29;;;;;;;;;5.00;3.00;;;;;;;;5053003;28;50946;-54
2023/08/13 00:54:54;;;;;;;;;4.00;4.00;;;;;;;;5052508;28;50892;-52
2023/08/13 00:57:20;;;;;;;;;3.00;3.00;;;;;;;;5052735;28;51299;-52
2023/08/13 00:59:47;;;;;;;;;4.75;4.00;;;;;;;;5052770;28;50959;-54
2023/08/13 01:02:12;;;;;;;;;3.00;3.00;;;;;;;;5053039;28;50897;-53
2023/08/13 01:04:37;;;;;;;;;4.00;4.00;;;;;;;;5052811;28;50974;-55
2023/08/13 01:07:17;;;;;;;;;4.00;4.00;;;;;;;;5052699;28;52040;-53
2023/08/13 01:10:51;;;;;;;;;;;;;;;;;;1394856;28;173823864;-54
2023/08/13 01:13:20;;;;;;;;;3.00;3.00;;;;;;;;5049500;28;51047;-54
2023/08/13 01:15:45;;;;;;;;;3.50;3.00;;;;;;;;5052404;28;51024;-56
2023/08/13 01:18:11;;;;;;;;;4.00;3.00;;;;;;;;5052353;28;50979;-54
2023/08/13 01:20:38;;;;;;;;;4.00;3.00;;;;;;;;5052853;28;51060;-53
2023/08/13 01:23:03;;;;;;;;;4.00;3.33;;;;;;;;5068305;27;51302;-54
2023/08/13 01:25:28;;;;;;;;;3.00;3.00;;;;;;;;5052213;28;52108;-54
2023/08/13 01:28:06;;;;;;;;;4.00;4.00;;;;;;;;5068039;28;51123;-53
2023/08/13 01:30:40;;;;;;;;;5.00;4.00;;;;;;;;5052497;28;51119;-54
2023/08/13 01:33:07;;;;;;;;;6.00;6.00;;;;;;;;5068380;28;51109;-54
2023/08/13 01:35:33;;;;;;;;;3.00;3.00;;;;;;;;5051871;28;51325;-54
2023/08/13 01:37:59;;;;;;;;;3.00;2.00;;;;;;;;5052346;28;51059;-54
2023/08/13 01:40:24;;;;;;;;;2.00;2.00;;;;;;;;5052375;28;51140;-54
2023/08/13 01:42:49;;;;;;;;;3.00;3.00;;;;;;;;5052527;28;51204;-54
2023/08/13 01:45:14;;;;;;;;;4.00;3.00;;;;;;;;5052363;28;51850;-53
2023/08/13 01:47:40;;;;;;;;;7.67;6.33;;;;;;;;5052390;28;51098;-54
2023/08/13 01:50:06;;;;;;;;;1.00;1.00;;;;;;;;5052522;28;51023;-53
2023/08/13 01:52:31;;;;;;;;;6.00;5.33;;;;;;;;5052692;28;51308;-53
2023/08/13 01:54:57;;;;;;;;;3.00;3.00;;;;;;;;5051908;28;52782;-54
2023/08/13 01:57:22;;;;;;;;;4.67;4.00;;;;;;;;5052261;28;51025;-54
2023/08/13 01:59:47;;;;;;;;;4.67;4.00;;;;;;;;5052379;28;51036;-54
2023/08/13 02:02:12;;;;;;;;;3.00;3.00;;;;;;;;5052708;28;51113;-53
2023/08/13 02:04:38;;;;;;;;;4.00;4.00;;;;;;;;5051871;28;51788;-53
2023/08/13 02:07:03;;;;;;;;;4.00;3.00;;;;;;;;5055955;28;51028;-53
2023/08/13 02:09:28;;;;;;;;;3.00;3.00;;;;;;;;5071105;28;50902;-52
2023/08/13 02:11:54;;;;;;;;;2.33;2.33;;;;;;;;5055492;28;51117;-54
2023/08/13 02:14:19;;;;;;;;;3.33;2.67;;;;;;;;5055248;28;52141;-54
2023/08/13 02:16:45;;;;;;;;;2.00;2.00;;;;;;;;5055203;28;50977;-54
2023/08/13 02:19:10;;;;;;;;;3.67;2.00;;;;;;;;5055619;28;51022;-54
2023/08/13 02:21:35;;;;;;;;;3.67;3.00;;;;;;;;5052434;28;51119;-55
2023/08/13 02:24:00;;;;;;;;;3.67;3.67;;;;;;;;5054379;28;52029;-57
2023/08/13 02:26:25;;;;;;;;;3.33;2.00;;;;;;;;5055496;28;50846;-53
2023/08/13 02:28:50;;;;;;;;;2.67;2.67;;;;;;;;5055414;28;50858;-55
2023/08/13 02:31:16;;;;;;;;;3.33;3.33;;;;;;;;5055331;28;50875;-54
2023/08/13 02:33:41;;;;;;;;;3.33;3.00;;;;;;;;5055542;28;51020;-54
2023/08/13 02:36:06;;;;;;;;;3.33;3.33;;;;;;;;5055466;28;50985;-54
2023/08/13 02:38:31;;;;;;;;;4.67;4.00;;;;;;;;5055141;28;51033;-54
2023/08/13 02:40:56;;;;;;;;;3.33;3.00;;;;;;;;5055622;28;51040;-54
2023/08/13 02:43:22;;;;;;;;;4.33;4.00;;;;;;;;5055234;28;51771;-54
2023/08/13 02:45:47;;;;;;;;;4.00;4.00;;;;;;;;5070620;27;50952;-54
2023/08/13 02:48:12;;;;;;;;;3.33;3.33;;;;;;;;5055238;28;51247;-55
2023/08/13 02:50:37;;;;;;;;;3.00;3.00;;;;;;;;5055160;28;51089;-54
2023/08/13 02:53:02;;;;;;;;;4.00;3.33;;;;;;;;5054935;28;52026;-55
2023/08/13 02:55:28;;;;;;;;;3.00;3.00;;;;;;;;5054887;28;50990;-54
2023/08/13 02:57:53;;;;;;;;;2.33;2.00;;;;;;;;5055259;28;50976;-54
2023/08/13 03:00:18;;;;;;;;;4.00;3.00;;;;;;;;5055210;28;50877;-54
2023/08/13 03:02:44;;;;;;;;;3.33;3.00;;;;;;;;5054920;28;51063;-54
2023/08/13 03:05:09;;;;;;;;;5.33;4.00;;;;;;;;5054696;28;51029;-53
2023/08/13 03:07:34;;;;;;;;;4.00;3.00;;;;;;;;5054980;28;51010;-54
2023/08/13 03:10:00;;;;;;;;;3.33;2.67;;;;;;;;5054724;28;50960;-53
2023/08/13 03:12:25;;;;;;;;;2.33;2.33;;;;;;;;5055098;28;51058;-55
2023/08/13 03:14:50;;;;;;;;;4.00;4.00;;;;;;;;5055169;28;51075;-54
2023/08/13 03:17:15;;;;;;;;;2.00;2.00;;;;;;;;5054606;28;50885;-54
2023/08/13 03:19:40;;;;;;;;;2.33;1.33;;;;;;;;5054789;28;51050;-54
2023/08/13 03:22:06;;;;;;;;;3.00;3.00;;;;;;;;5054503;28;51886;-54
2023/08/13 03:24:31;;;;;;;;;3.00;3.00;;;;;;;;5054158;28;51109;-54
2023/08/13 03:26:56;;;;;;;;;5.00;2.67;;;;;;;;5054564;28;50936;-54
2023/08/13 03:29:21;;;;;;;;;3.67;3.00;;;;;;;;5054674;28;50968;-54
2023/08/13 03:31:46;;;;;;;;;3.00;3.00;;;;;;;;5054401;28;52152;-54
2023/08/13 03:34:11;;;;;;;;;4.00;3.00;;;;;;;;5054230;28;50948;-53
2023/08/13 03:36:37;;;;;;;;;5.00;4.00;;;;;;;;5054253;28;51287;-54
2023/08/13 03:39:02;;;;;;;;;3.33;3.33;;;;;;;;5054377;28;51164;-54
2023/08/13 03:41:27;;;;;;;;;3.00;2.00;;;;;;;;5069839;28;52840;-55
2023/08/13 03:43:52;;;;;;;;;4.67;3.00;;;;;;;;5054261;28;50983;-54
2023/08/13 03:46:17;;;;;;;;;3.67;3.33;;;;;;;;5054230;28;51020;-54
2023/08/13 03:48:43;;;;;;;;;2.67;2.67;;;;;;;;5054275;28;51306;-53
2023/08/13 03:51:08;;;;;;;;;3.00;2.00;;;;;;;;5053765;28;53560;-55
2023/08/13 03:53:33;;;;;;;;;2.00;2.00;;;;;;;;5053908;28;50881;-54
2023/08/13 03:55:58;;;;;;;;;4.67;4.67;;;;;;;;5054216;28;51081;-55
2023/08/13 03:58:24;;;;;;;;;3.00;3.00;;;;;;;;5054255;28;51067;-54
2023/08/13 04:00:49;;;;;;;;;5.33;4.00;;;;;;;;5053953;28;51063;-54
2023/08/13 04:03:14;;;;;;;;;7.00;4.00;;;;;;;;5054007;28;50850;-54
2023/08/13 04:05:40;;;;;;;;;2.33;2.33;;;;;;;;5054365;28;51107;-54
2023/08/13 04:08:05;;;;;;;;;3.00;2.00;;;;;;;;5054122;28;51008;-54
2023/08/13 04:10:30;;;;;;;;;3.67;2.00;;;;;;;;5053290;28;53695;-53
2023/08/13 04:12:56;;;;;;;;;2.67;2.67;;;;;;;;5053857;28;50810;-54
2023/08/13 04:15:22;;;;;;;;;2.00;2.00;;;;;;;;5054193;28;51120;-55
2023/08/13 04:17:47;;;;;;;;;3.67;3.00;;;;;;;;5056835;28;51309;-55
2023/08/13 04:20:12;;;;;;;;;2.33;2.33;;;;;;;;5054259;28;51847;-54
2023/08/13 04:22:37;;;;;;;;;3.00;2.33;;;;;;;;5043439;28;51178;-54
2023/08/13 04:25:03;;;;;;;;;2.67;2.00;;;;;;;;5053152;28;50992;-56
2023/08/13 04:27:28;;;;;;;;;3.00;3.00;;;;;;;;5053045;28;51087;-53
2023/08/13 04:29:53;;;;;;;;;3.00;3.00;;;;;;;;5053011;28;52100;-53
2023/08/13 04:32:18;;;;;;;;;3.67;3.00;;;;;;;;5053594;28;51078;-53
2023/08/13 04:34:43;;;;;;;;;3.00;3.00;;;;;;;;5069152;28;50971;-54
2023/08/13 04:37:08;;;;;;;;;3.33;3.33;;;;;;;;5053379;28;51108;-53
2023/08/13 04:39:34;;;;;;;;;3.00;2.33;;;;;;;;5053169;28;51827;-54
2023/08/13 04:41:59;;;;;;;;;5.33;3.67;;;;;;;;5053228;28;51107;-54
2023/08/13 04:44:25;;;;;;;;;4.00;3.33;;;;;;;;5053781;28;51105;-53
2023/08/13 04:46:50;;;;;;;;;4.67;3.00;;;;;;;;5053458;28;50927;-54
2023/08/13 04:49:15;;;;;;;;;5.00;3.00;;;;;;;;5053316;28;51135;-54
2023/08/13 04:51:40;;;;;;;;;1.00;1.00;;;;;;;;5053337;28;51102;-54
2023/08/13 04:54:06;;;;;;;;;3.00;2.67;;;;;;;;5053293;28;51110;-55
2023/08/13 04:56:31;;;;;;;;;4.00;4.00;;;;;;;;5053399;28;50861;-54
2023/08/13 04:58:56;;;;;;;;;2.67;2.67;;;;;;;;5053031;28;51869;-54
2023/08/13 05:01:21;;;;;;;;;4.00;3.00;;;;;;;;5053140;28;51018;-54
2023/08/13 05:03:47;;;;;;;;;3.00;2.00;;;;;;;;5053293;28;51393;-54
2023/08/13 05:06:12;;;;;;;;;5.00;4.00;;;;;;;;5053360;28;51075;-52
2023/08/13 05:08:38;;;;;;;;;2.00;2.00;;;;;;;;5068232;28;52036;-52
2023/08/13 05:11:03;;;;;;;;;4.00;3.33;;;;;;;;5052886;28;51040;-54
2023/08/13 05:13:28;;;;;;;;;3.33;3.00;;;;;;;;5053233;28;50945;-54
2023/08/13 05:15:53;;;;;;;;;2.00;2.00;;;;;;;;5053394;28;51058;-54
2023/08/13 05:18:18;;;;;;;;;3.67;3.00;;;;;;;;5052843;28;53131;-53
2023/08/13 05:20:45;;;;;;;;;4.00;3.67;;;;;;;;5052886;28;51093;-53
2023/08/13 05:23:10;;;;;;;;;4.00;3.00;;;;;;;;5052532;28;50976;-53
2023/08/13 05:25:38;;;;;;;;;2.00;2.00;;;;;;;;5053118;28;51044;-53
2023/08/13 05:28:04;;;;;;;;;3.00;2.00;;;;;;;;5052420;28;51869;-54
2023/08/13 05:30:29;;;;;;;;;2.00;2.00;;;;;;;;5068026;28;51104;-54
2023/08/13 05:32:54;;;;;;;;;2.67;2.00;;;;;;;;5052560;28;51200;-52
2023/08/13 05:35:21;;;;;;;;;3.33;2.00;;;;;;;;5052725;28;51030;-55
2023/08/13 05:37:46;;;;;;;;;3.00;3.00;;;;;;;;5067602;28;51898;-53
2023/08/13 05:40:11;;;;;;;;;2.00;2.00;;;;;;;;5053097;28;51033;-53
2023/08/13 05:42:36;;;;;;;;;2.33;2.00;;;;;;;;5056238;28;50925;-53
2023/08/13 05:45:02;;;;;;;;;4.00;3.00;;;;;;;;5056451;28;51036;-53
2023/08/13 05:47:28;;;;;;;;;4.00;3.00;;;;;;;;5055953;28;52822;-54
2023/08/13 05:49:53;;;;;;;;;4.00;3.67;;;;;;;;5056071;28;51239;-53
2023/08/13 05:52:19;;;;;;;;;2.67;2.00;;;;;;;;5056207;28;51127;-52
2023/08/13 05:54:46;;;;;;;;;4.00;3.00;;;;;;;;5054674;28;51306;-52
2023/08/13 05:57:11;;;;;;;;;3.67;3.00;;;;;;;;5055657;28;51243;-53
2023/08/13 05:59:38;;;;;;;;;4.00;2.67;;;;;;;;5055788;28;51100;-51
2023/08/13 06:02:03;;;;;;;;;2.33;2.00;;;;;;;;5053159;28;51283;-51
2023/08/13 06:04:29;;;;;;;;;4.00;2.33;;;;;;;;5054539;28;51017;-53
2023/08/13 06:06:54;;;;;;;;;4.00;3.33;;;;;;;;5055437;28;51012;-54
2023/08/13 06:09:19;;;;;;;;;3.00;3.00;;;;;;;;5045310;28;50989;-54
2023/08/13 06:11:44;;;;;;;;;2.33;2.00;;;;;;;;5055226;28;50880;-55
2023/08/13 06:14:09;;;;;;;;;8.00;8.00;;;;;;;;5059801;28;51260;-54
2023/08/13 06:16:35;;;;;;;;;3.00;2.33;;;;;;;;5054014;28;51851;-55
2023/08/13 06:19:00;;;;;;;;;2.33;2.00;;;;;;;;5055448;28;51117;-54
2023/08/13 06:21:25;;;;;;;;;4.00;4.00;;;;;;;;5042424;28;51308;-54
2023/08/13 06:23:50;;;;;;;;;2.00;2.00;;;;;;;;5055382;28;51006;-53
2023/08/13 06:26:15;;;;;;;;;2.00;2.00;;;;;;;;5055119;28;51093;-54
2023/08/13 06:28:41;;;;;;;;;2.67;2.00;;;;;;;;5055107;28;51084;-55
2023/08/13 06:31:06;;;;;;;;;2.67;2.00;;;;;;;;5055085;28;51064;-53
2023/08/13 06:33:31;;;;;;;;;2.00;2.00;;;;;;;;5055512;28;51122;-55
2023/08/13 06:35:56;;;;;;;;;2.00;2.00;;;;;;;;5055911;28;51823;-53
2023/08/13 06:38:23;;;;;;;;;3.67;3.00;;;;;;;;5055140;28;51174;-55
2023/08/13 06:40:49;;;;;;;;;4.00;3.00;;;;;;;;5054984;28;50887;-55
2023/08/13 06:43:14;;;;;;;;;3.00;2.00;;;;;;;;5055278;28;51145;-54
2023/08/13 06:45:39;;;;;;;;;3.00;3.00;;;;;;;;5054466;28;51674;-55
2023/08/13 06:48:04;;;;;;;;;3.67;2.67;;;;;;;;5055046;28;50942;-54
2023/08/13 06:50:30;;;;;;;;;5.33;3.33;;;;;;;;5054764;28;51016;-55
2023/08/13 06:52:55;;;;;;;;;1.00;1.00;;;;;;;;5055158;28;50885;-54
2023/08/13 06:55:21;;;;;;;;;2.00;2.00;;;;;;;;5054554;28;51973;-55
2023/08/13 06:57:46;;;;;;;;;3.67;2.67;;;;;;;;5055078;28;51010;-55
2023/08/13 07:00:12;;;;;;;;;9.00;8.33;;;;;;;;5054950;28;50972;-55
2023/08/13 07:02:37;;;;;;;;;2.00;2.00;;;;;;;;5055249;28;51081;-54
2023/08/13 07:05:03;;;;;;;;;4.67;3.67;;;;;;;;5054499;28;51726;-55
2023/08/13 07:07:28;;;;;;;;;2.00;2.00;;;;;;;;5054808;28;51095;-54
2023/08/13 07:09:53;;;;;;;;;2.33;1.00;;;;;;;;5054448;28;51044;-54
2023/08/13 07:12:19;;;;;;;;;4.00;1.67;;;;;;;;5054941;28;51453;-52
2023/08/13 07:14:44;;;;;;;;;2.00;2.00;;;;;;;;5054517;28;51980;-54
2023/08/13 07:17:09;;;;;;;;;3.00;1.67;;;;;;;;5054789;28;50955;-54
2023/08/13 07:19:34;;;;;;;;;3.67;3.00;;;;;;;;5054838;28;51003;-55
2023/08/13 07:22:00;;;;;;;;;3.00;3.00;;;;;;;;5054783;28;50924;-55
2023/08/13 07:24:25;;;;;;;;;3.33;2.00;;;;;;;;5053879;28;51662;-54
2023/08/13 07:26:50;;;;;;;;;2.00;1.67;;;;;;;;5054451;28;51081;-55
2023/08/13 07:29:15;;;;;;;;;3.33;3.33;;;;;;;;5054411;28;51021;-55
2023/08/13 07:31:41;;;;;;;;;2.00;2.00;;;;;;;;5054629;28;51053;-55
2023/08/13 07:34:06;;;;;;;;;2.00;2.00;;;;;;;;5053942;28;52010;-54
2023/08/13 07:36:31;;;;;;;;;2.33;1.00;;;;;;;;5054481;28;50945;-55
2023/08/13 07:38:57;;;;;;;;;3.00;2.67;;;;;;;;5054018;28;51174;-56
2023/08/13 07:41:22;;;;;;;;;2.00;2.00;;;;;;;;5054307;28;51220;-53
2023/08/13 07:43:47;;;;;;;;;1.67;1.67;;;;;;;;5053989;28;51853;-55
2023/08/13 07:46:13;;;;;;;;;2.00;1.67;;;;;;;;5054416;28;51112;-56
2023/08/13 07:48:38;;;;;;;;;3.67;3.00;;;;;;;;5054138;28;50934;-54
2023/08/13 07:51:03;;;;;;;;;1.33;1.33;;;;;;;;5054397;28;51079;-55
2023/08/13 07:53:29;;;;;;;;;2.00;2.00;;;;;;;;5053559;28;51749;-55
2023/08/13 07:55:55;;;;;;;;;2.00;1.33;;;;;;;;5054331;28;51001;-55
2023/08/13 07:58:20;;;;;;;;;1.00;1.00;;;;;;;;5054104;28;50913;-54
2023/08/13 08:00:45;;;;;;;;;3.67;2.00;;;;;;;;5054153;28;51037;-55
2023/08/13 08:03:10;;;;;;;;;1.33;1.33;;;;;;;;5052514;28;52557;-55
2023/08/13 08:05:36;;;;;;;;;2.00;2.00;;;;;;;;5053921;28;51080;-55
2023/08/13 08:08:01;;;;;;;;;1.00;1.00;;;;;;;;5053607;28;51167;-54
2023/08/13 08:10:27;;;;;;;;;2.00;1.00;;;;;;;;5053951;28;51001;-55
2023/08/13 08:12:52;;;;;;;;;4.00;2.00;;;;;;;;5053711;28;51722;-56
2023/08/13 08:15:18;;;;;;;;;2.00;2.00;;;;;;;;5053966;28;50991;-55
2023/08/13 08:17:43;;;;;;;;;2.67;1.67;;;;;;;;5053827;28;50957;-55
2023/08/13 08:20:08;;;;;;;;;1.00;1.00;;;;;;;;5054152;28;51377;-56
2023/08/13 08:22:33;;;;;;;;;2.67;1.33;;;;;;;;5053557;28;51086;-56
2023/08/13 08:24:59;;;;;;;;;2.00;1.00;;;;;;;;5052051;28;51016;-55
2023/08/13 08:27:24;;;;;;;;;2.33;1.00;;;;;;;;5053358;28;51003;-55
2023/08/13 08:29:49;;;;;;;;;1.00;1.00;;;;;;;;5051425;28;51163;-57
2023/08/13 08:32:15;;;;;;;;;2.33;2.00;;;;;;;;5046141;28;53002;-55
2023/08/13 08:34:40;;;;;;;;;1.33;1.33;;;;;;;;5053614;28;51193;-55
2023/08/13 08:37:06;;;;;;;;;1.00;1.00;;;;;;;;5068831;28;51296;-55
2023/08/13 08:39:31;;;;;;;;;2.00;2.00;;;;;;;;5053746;28;50996;-55
2023/08/13 08:41:57;;;;;;;;;3.00;2.00;;;;;;;;5053060;28;52430;-55
2023/08/13 08:44:23;;;;;;;;;2.00;2.00;;;;;;;;5051853;28;51063;-56
2023/08/13 08:46:49;;;;;;;;;2.33;2.00;;;;;;;;5053460;28;50918;-55
2023/08/13 08:49:16;;;;;;;;;1.00;1.00;;;;;;;;5053473;28;51324;-55
2023/08/13 08:51:41;;;;;;;;;1.67;1.33;;;;;;;;5052928;28;50930;-55
2023/08/13 08:54:06;;;;;;;;;2.00;2.00;;;;;;;;5053215;28;51031;-55
2023/08/13 08:56:31;;;;;;;;;1.00;1.00;;;;;;;;5068588;28;50911;-56
2023/08/13 08:58:56;;;;;;;;;0.33;0.33;;;;;;;;5053188;28;50818;-56
2023/08/13 09:01:21;;;;;;;;;0.67;0.67;;;;;;;;5052926;28;50992;-55
2023/08/13 09:03:47;;;;;;;;;1.00;0.00;;;;;;;;5053246;28;51972;-56
2023/08/13 09:06:12;;;;;;;;;2.00;1.00;;;;;;;;5053029;28;51010;-55
2023/08/13 09:08:37;;;;;;;;;0.00;0.00;;;;;;;;5053299;28;51108;-55
2023/08/13 09:11:02;;;;;;;;;1.00;1.00;;;;;;;;5052547;28;51727;-55
2023/08/13 09:13:28;;;;;;;;;2.00;1.67;;;;;;;;5052904;28;50883;-54
2023/08/13 09:15:53;;;;;;;;;0.00;0.00;;;;;;;;5052787;28;50974;-56
2023/08/13 09:18:21;;;;;;;;;0.33;0.00;;;;;;;;5053221;28;51019;-55
2023/08/13 09:20:48;;;;;;;;;1.00;1.00;;;;;;;;5052223;28;52907;-55
2023/08/13 09:23:22;;;;;;;;;2.00;1.00;;;;;;;;5052175;28;51169;-55
2023/08/13 09:25:55;;;;;;;;;1.00;0.67;;;;;;;;5052428;28;51079;-55
2023/08/13 09:28:21;;;;;;;;;2.00;1.00;;;;;;;;5052564;28;51163;-55
2023/08/13 09:30:46;;;;;;;;;1.00;1.00;;;;;;;;5052000;28;50960;-55
2023/08/13 09:33:13;;;;;;;;;1.00;0.67;;;;;;;;5052159;28;50886;-55
2023/08/13 09:35:39;;;;;;;;;0.00;0.00;;;;;;;;5052144;28;51060;-55
2023/08/13 09:38:04;;;;;;;;;1.67;1.00;;;;;;;;5052196;28;50884;-56
2023/08/13 09:40:30;;;;;;;;;1.33;1.33;;;;;;;;5051930;28;50965;-55
2023/08/13 09:42:55;;;;;;;;;1.00;1.00;;;;;;;;5052150;28;50989;-55
2023/08/13 09:45:22;;;;;;;;;1.00;1.00;;;;;;;;5051928;28;51060;-56
2023/08/13 09:47:48;;;;;;;;;4.00;4.00;;;;;;;;5052062;28;51045;-56
2023/08/13 09:50:17;;;;;;;;;3.00;2.00;;;;;;;;5051432;28;52095;-55
2023/08/13 09:52:44;;;;;;;;;1.00;1.00;;;;;;;;5051740;28;50972;-57
2023/08/13 09:55:12;;;;;;;;;1.33;1.00;;;;;;;;5051225;28;51105;-55
2023/08/13 09:57:39;;;;;;;;;0.33;0.00;;;;;;;;5052201;28;50975;-56
2023/08/13 10:00:05;;;;;;;;;0.67;0.33;;;;;;;;5051721;28;51871;-56
2023/08/13 10:02:31;;;;;;;;;1.00;0.00;;;;;;;;5067455;28;50985;-55
2023/08/13 10:04:57;;;;;;;;;0.00;0.00;;;;;;;;5051851;28;51208;-55
2023/08/13 10:07:23;;;;;;;;;0.67;0.00;;;;;;;;5052058;28;51095;-56
2023/08/13 10:09:49;;;;;;;;;0.00;0.00;;;;;;;;5051118;28;52415;-56
2023/08/13 10:12:15;;;;;;;;;1.33;0.33;;;;;;;;5051708;28;51006;-56
2023/08/13 10:14:41;;;;;;;;;0.33;0.33;;;;;;;;5051546;28;51556;-55
2023/08/13 10:17:06;;;;;;;;;1.00;0.33;;;;;;;;5052329;28;51076;-56
2023/08/13 10:19:34;;;;;;;;;1.00;1.00;;;;;;;;5050258;28;52761;-57
2023/08/13 10:21:59;;;;;;;;;0.00;0.00;;;;;;;;5052008;28;50984;-55
2023/08/13 10:24:28;;;;;;;;;1.33;1.33;;;;;;;;5051343;28;50924;-56
2023/08/13 10:26:53;;;;;;;;;1.67;1.67;;;;;;;;5053817;28;50901;-56
2023/08/13 10:29:19;;;;;;;;;0.00;0.00;;;;;;;;5054959;28;51133;-57
2023/08/13 10:31:49;;;;;;;;;3.67;3.00;;;;;;;;5050728;28;51112;-56
2023/08/13 10:34:16;;;;;;;;;1.00;0.00;;;;;;;;5054799;28;51270;-58
2023/08/13 10:36:43;;;;;;;;;0.00;0.00;;;;;;;;5055007;28;50903;-56
2023/08/13 10:39:27;;;;;;;;;0.33;0.00;;;;;;;;5054426;28;53336;-56
2023/08/13 10:41:52;;;;;;;;;0.67;0.00;;;;;;;;5054510;28;51032;-55
2023/08/13 10:44:39;;;;;;;;;0.00;0.00;;;;;;;;5055133;28;51135;-55
2023/08/13 10:47:04;;;;;;;;;0.00;0.00;;;;;;;;5054889;28;51096;-57
2023/08/13 10:49:29;;;;;;;;;1.00;1.00;;;;;;;;5054493;28;51008;-57
2023/08/13 10:51:59;;;;;;;;;0.00;0.00;;;;;;;;5054673;28;51025;-56
2023/08/13 10:54:25;;;;;;;;;2.00;1.00;;;;;;;;5054853;28;50897;-57
2023/08/13 10:56:58;;;;;;;;;1.67;1.00;;;;;;;;5054688;28;51364;-56
2023/08/13 10:59:38;;;;;;;;;0.67;0.00;;;;;;;;5054063;28;51819;-62
2023/08/13 11:02:12;;;;;;;;;0.33;0.33;;;;;;;;5054400;28;51097;-56
2023/08/13 11:04:39;;;;;;;;;0.67;0.67;;;;;;;;5054353;28;51181;-57
2023/08/13 11:07:05;;;;;;;;;5.00;4.00;;;;;;;;5054495;28;51226;-57
2023/08/13 11:09:30;;;;;;;;;0.00;0.00;;;;;;;;5053689;28;52782;-56
2023/08/13 11:11:56;;;;;;;;;0.67;0.67;;;;;;;;5054005;28;51034;-56
2023/08/13 11:14:21;;;;;;;;;1.00;1.00;;;;;;;;5054204;28;50827;-55
2023/08/13 11:16:47;;;;;;;;;2.00;1.67;;;;;;;;5052683;28;51247;-58
2023/08/13 11:19:12;;;;;;;;;0.67;0.67;;;;;;;;5053864;28;50870;-57
2023/08/13 11:21:37;;;;;;;;;1.67;1.33;;;;;;;;5054164;28;51044;-57
2023/08/13 11:24:04;;;;;;;;;0.00;0.00;;;;;;;;4937072;28;3355265;-57
2023/08/13 11:26:30;;;;;;;;;0.33;0.33;;;;;;;;5054321;28;51268;-57
2023/08/13 11:28:57;;;;;;;;;1.00;0.00;;;;;;;;5053397;28;51621;-56
2023/08/13 11:31:23;;;;;;;;;1.00;1.00;;;;;;;;5053916;28;51026;-56
2023/08/13 11:33:49;;;;;;;;;1.33;1.00;;;;;;;;5053783;28;51018;-58
2023/08/13 11:36:14;;;;;;;;;1.00;0.00;;;;;;;;5054007;28;51051;-56
2023/08/13 11:38:39;;;;;;;;;0.67;0.67;;;;;;;;5053183;28;50965;-55
2023/08/13 11:41:14;;;;;;;;;1.67;1.67;;;;;;;;5053870;28;51016;-56
2023/08/13 11:43:39;;;;;;;;;1.00;1.00;;;;;;;;5053715;28;50970;-57
2023/08/13 11:46:05;;;;;;;;;2.33;2.33;;;;;;;;5053779;28;51219;-57
2023/08/13 11:48:31;;;;;;;;;1.33;1.00;;;;;;;;3351044;28;48777204;-56
2023/08/13 11:51:09;;;;;;;;;0.00;0.00;;;;;;;;5053644;28;51405;-56
2023/08/13 11:53:42;;;;;;;;;2.33;1.00;;;;;;;;5053521;28;50987;-56
2023/08/13 11:56:07;;;;;;;;;0.67;0.00;;;;;;;;5052643;28;51307;-57
2023/08/13 11:58:32;;;;;;;;;0.67;0.00;;;;;;;;5053150;28;51856;-56
2023/08/13 12:00:57;;;;;;;;;2.00;1.33;;;;;;;;5052040;28;51036;-56
2023/08/13 12:03:23;;;;;;;;;1.33;1.00;;;;;;;;5053401;28;51059;-56
2023/08/13 12:05:51;;;;;;;;;2.00;2.00;;;;;;;;5053671;28;51057;-56
2023/08/13 12:08:16;;;;;;;;;1.00;1.00;;;;;;;;5052994;28;50938;-57
2023/08/13 12:10:41;;;;;;;;;2.00;1.67;;;;;;;;5052846;28;51038;-57
2023/08/13 12:13:07;;;;;;;;;2.00;1.33;;;;;;;;5053158;28;50969;-55
2023/08/13 12:15:32;;;;;;;;;3.00;2.00;;;;;;;;5053564;28;51152;-56
2023/08/13 12:17:58;;;;;;;;;1.67;1.00;;;;;;;;5052885;28;51178;-56
2023/08/13 12:20:23;;;;;;;;;3.67;1.33;;;;;;;;5063622;28;51045;-58
2023/08/13 12:22:49;;;;;;;;;1.33;1.33;;;;;;;;5056454;28;51185;-57
2023/08/13 12:25:14;;;;;;;;;1.00;1.00;;;;;;;;5063373;28;50981;-57
2023/08/13 12:27:39;;;;;;;;;1.67;1.00;;;;;;;;5059085;27;51093;-56
2023/08/13 12:30:06;;;;;;;;;1.00;1.00;;;;;;;;5063512;27;51036;-57
2023/08/13 12:32:31;;;;;;;;;1.67;1.67;;;;;;;;5049649;28;51114;-56
2023/08/13 12:34:56;;;;;;;;;1.33;1.00;;;;;;;;5052819;28;50862;-57
2023/08/13 12:37:21;;;;;;;;;1.00;1.00;;;;;;;;5052290;28;51091;-57
2023/08/13 12:39:49;;;;;;;;;6.67;6.67;;;;;;;;5052554;28;51131;-57
2023/08/13 12:42:14;;;;;;;;;1.33;1.00;;;;;;;;5052626;28;51010;-57
2023/08/13 12:44:40;;;;;;;;;0.67;0.00;;;;;;;;5052589;28;50951;-56
2023/08/13 12:47:05;;;;;;;;;2.00;2.00;;;;;;;;5052464;28;51890;-57
2023/08/13 12:49:30;;;;;;;;;1.67;1.33;;;;;;;;5067684;28;51083;-57
2023/08/13 12:51:56;;;;;;;;;2.00;0.67;;;;;;;;5052594;28;51071;-56
2023/08/13 12:54:22;;;;;;;;;2.00;2.00;;;;;;;;5052548;28;51139;-56
2023/08/13 12:56:47;;;;;;;;;1.00;1.00;;;;;;;;5051972;28;51047;-56
2023/08/13 12:59:12;;;;;;;;;0.33;0.33;;;;;;;;5052474;28;51023;-56
2023/08/13 13:01:37;;;;;;;;;2.00;1.00;;;;;;;;5052338;28;51464;-55
2023/08/13 13:04:03;;;;;;;;;1.00;0.00;;;;;;;;5052290;28;51034;-56
2023/08/13 13:07:51;;;;;;;;;;;;;;;;;;2;228222543;228222543;-57
2023/08/13 13:10:16;;;;;;;;;2.00;1.25;;;;;;;;5049439;28;51017;-56
2023/08/13 13:12:41;;;;;;;;;1.33;1.33;;;;;;;;5052214;28;51020;-56
2023/08/13 13:15:07;;;;;;;;;1.00;1.00;;;;;;;;5051809;28;51242;-56
2023/08/13 13:17:32;;;;;;;;;0.00;0.00;;;;;;;;5052127;28;51408;-56
2023/08/13 13:19:58;;;;;;;;;1.00;0.33;;;;;;;;5067668;28;51036;-57
2023/08/13 13:22:24;;;;;;;;;1.00;1.00;;;;;;;;5067607;28;50885;-56
2023/08/13 13:24:49;;;;;;;;;1.00;1.00;;;;;;;;5058438;28;51314;-56
2023/08/13 13:27:14;;;;;;;;;3.33;3.33;;;;;;;;5051492;28;51003;-56
2023/08/13 13:29:39;;;;;;;;;1.33;1.33;;;;;;;;5052293;28;50878;-56
2023/08/13 13:32:05;;;;;;;;;2.00;1.00;;;;;;;;5052370;28;50897;-57
2023/08/13 13:34:30;;;;;;;;;2.33;2.33;;;;;;;;5051805;28;51350;-57
2023/08/13 13:36:55;;;;;;;;;1.33;1.33;;;;;;;;5051716;28;50937;-57
2023/08/13 13:39:20;;;;;;;;;3.33;3.00;;;;;;;;5051673;28;50877;-57
2023/08/13 13:41:46;;;;;;;;;2.00;2.00;;;;;;;;5052176;28;51071;-57
2023/08/13 13:44:11;;;;;;;;;2.00;2.00;;;;;;;;5051447;28;51048;-57
2023/08/13 13:46:36;;;;;;;;;2.00;2.00;;;;;;;;5051461;28;51033;-56
2023/08/13 13:49:01;;;;;;;;;2.00;2.00;;;;;;;;5051933;28;50788;-56
2023/08/13 13:51:26;;;;;;;;;4.33;4.00;;;;;;;;5067559;28;51146;-55
2023/08/13 13:53:52;;;;;;;;;1.33;1.33;;;;;;;;5051348;28;50972;-56
2023/08/13 13:56:17;;;;;;;;;2.00;2.00;;;;;;;;5051747;28;51001;-55
2023/08/13 13:58:42;;;;;;;;;2.00;1.67;;;;;;;;5051788;28;51128;-56
2023/08/13 14:01:07;;;;;;;;;3.67;3.00;;;;;;;;5052578;28;50809;-57
2023/08/13 14:03:33;;;;;;;;;4.33;3.33;;;;;;;;5054882;28;51009;-56
2023/08/13 14:05:58;;;;;;;;;1.33;1.33;;;;;;;;5056805;28;50976;-56
2023/08/13 14:08:23;;;;;;;;;2.33;2.00;;;;;;;;5054729;28;51244;-56
2023/08/13 14:10:48;;;;;;;;;2.00;1.00;;;;;;;;5055205;28;50842;-55
2023/08/13 14:13:13;;;;;;;;;1.33;1.33;;;;;;;;5054782;28;52162;-56
2023/08/13 14:15:39;;;;;;;;;0.00;0.00;;;;;;;;5054893;28;51007;-56
2023/08/13 14:18:05;;;;;;;;;0.00;0.00;;;;;;;;5070454;28;51214;-56
2023/08/13 14:20:30;;;;;;;;;2.33;2.00;;;;;;;;5070599;28;51034;-56
2023/08/13 14:22:55;;;;;;;;;2.00;2.00;;;;;;;;5054448;28;51106;-56
2023/08/13 14:25:20;;;;;;;;;0.33;0.33;;;;;;;;5054679;28;51030;-56
2023/08/13 14:27:46;;;;;;;;;2.33;2.33;;;;;;;;5054681;28;51126;-55
2023/08/13 14:30:11;;;;;;;;;2.00;2.00;;;;;;;;5054740;28;51362;-58
2023/08/13 14:32:36;;;;;;;;;1.67;0.67;;;;;;;;5049330;28;51114;-56
2023/08/13 14:35:02;;;;;;;;;1.00;1.00;;;;;;;;5046938;28;51064;-55
2023/08/13 14:37:27;;;;;;;;;2.00;2.00;;;;;;;;5054445;28;51056;-55